Terminal Aerodrome Forecast
Issued by NWS

Home | Current Version | Previous Version | Text Only | Print | Product List | Glossary On
Versions: 1 2 3 4 5 6 7 8 9 10 11 12 13 14 15 16 17 18 19 20 21 22 23
000
FTUS43 KICT 310522
TAFSLN
TAF
KSLN 310522Z 3106/0106 13006KT P6SM FEW035
     FM310800 14006KT 4SM BR SCT012
      TEMPO 3109/3113 2SM BR
     FM311500 17011KT P6SM SKC=

USA.gov is the U.S. government's official web portal to all federal, state and local government web resources and services.